Sao Bento, Brazil
Current Conditions -  °F | °C
As of 8:00 PM on Thursday 20 Nov 2014 (Local Time) from SBSL Reporting Station
Scattered Clouds Scattered Clouds  
Wind Chill: 82°   Ceiling: Unl
Heat Index: 87°   Visibility: 6mi
Dew Point: 72°   Wind: 17mph
Humidity: 70%   Direction: 40°NE
Pressure: 29.83"   Gusts: NA
Location:  2.7°S, 44.82°W
Report Text: SBSL 202300Z 04015KT 9999 SCT020 28/22 Q1010
Loading
Personal Weather Stations






























Interactive Weather Map New forecast layout! Learn more

10-Day Weather Forecast

Advertisements
Track Severe Weather on mobile